createdAt,value
2022-12-13T00:00:19.485Z,998.28
2022-12-13T00:01:19.477Z,998.19
2022-12-13T00:02:19.688Z,998.25
2022-12-13T00:03:19.484Z,998.17
2022-12-13T00:04:19.492Z,998.20
2022-12-13T00:05:19.426Z,998.17
2022-12-13T00:06:19.414Z,998.14
2022-12-13T00:07:19.405Z,998.12
2022-12-13T00:08:19.477Z,998.12
2022-12-13T00:09:19.376Z,998.05
2022-12-13T00:10:19.364Z,998.07
2022-12-13T00:11:19.349Z,998.09
2022-12-13T00:12:19.338Z,998.11
2022-12-13T00:13:19.326Z,998.11
2022-12-13T00:14:19.333Z,998.12
2022-12-13T00:15:19.305Z,998.12
2022-12-13T00:16:19.374Z,998.09
2022-12-13T00:17:19.276Z,998.09
2022-12-13T00:18:19.268Z,998.06
2022-12-13T00:19:19.300Z,998.05
2022-12-13T00:20:19.246Z,998.00
2022-12-13T00:21:19.229Z,998.01
2022-12-13T00:22:19.221Z,998.05
2022-12-13T00:23:19.203Z,998.03
2022-12-13T00:24:19.207Z,997.97
2022-12-13T00:25:19.180Z,998.04
2022-12-13T00:26:19.169Z,997.98
2022-12-13T00:27:19.160Z,997.97
2022-12-13T00:28:19.147Z,997.99
2022-12-13T00:29:19.153Z,997.98
2022-12-13T00:30:19.123Z,997.96
2022-12-13T00:31:53.573Z,997.93
2022-12-13T00:32:20.256Z,997.96
2022-12-13T00:33:19.083Z,997.89
2022-12-13T00:34:19.110Z,997.92
2022-12-13T00:35:19.081Z,997.88
2022-12-13T00:36:19.054Z,998.00
2022-12-13T00:37:19.048Z,997.95
2022-12-13T00:38:19.021Z,997.90
2022-12-13T00:39:19.146Z,997.95
2022-12-13T00:40:19.008Z,997.93
2022-12-13T00:41:18.992Z,997.91
2022-12-13T00:42:18.978Z,997.92
2022-12-13T00:43:18.969Z,997.88
2022-12-13T00:44:18.972Z,997.91
2022-12-13T00:45:18.938Z,997.85
2022-12-13T00:46:18.994Z,997.83
2022-12-13T00:47:18.917Z,997.84
2022-12-13T00:48:18.909Z,997.84
2022-12-13T00:49:18.910Z,997.86
2022-12-13T00:50:18.881Z,997.83
2022-12-13T00:51:18.886Z,997.82
2022-12-13T00:52:18.857Z,997.87
2022-12-13T00:53:18.844Z,997.85
2022-12-13T00:54:18.853Z,997.81
2022-12-13T00:55:18.819Z,997.82
2022-12-13T00:56:18.812Z,997.83
2022-12-13T00:57:18.794Z,997.81
2022-12-13T00:58:18.781Z,997.81
2022-12-13T00:59:18.784Z,997.77
2022-12-13T01:00:18.787Z,997.80
2022-12-13T01:01:18.799Z,997.79
2022-12-13T01:02:18.734Z,997.74
2022-12-13T01:03:18.746Z,997.79
2022-12-13T01:04:18.724Z,997.74
2022-12-13T01:05:33.432Z,997.71
2022-12-13T01:06:18.691Z,997.71
2022-12-13T01:07:18.698Z,997.68
2022-12-13T01:08:18.734Z,997.66
2022-12-13T01:09:18.661Z,997.65
2022-12-13T01:10:18.636Z,997.70
2022-12-13T01:11:18.625Z,997.61
2022-12-13T01:12:18.612Z,997.75
2022-12-13T01:13:18.603Z,997.69
2022-12-13T01:14:18.609Z,997.72
2022-12-13T01:15:18.576Z,997.69
2022-12-13T01:16:18.756Z,997.76
2022-12-13T01:17:18.555Z,997.75
2022-12-13T01:18:18.544Z,997.78
2022-12-13T01:19:18.540Z,997.79
2022-12-13T01:20:18.514Z,997.81
2022-12-13T01:21:18.502Z,997.86
2022-12-13T01:22:18.492Z,997.83
2022-12-13T01:23:18.497Z,997.81
2022-12-13T01:24:18.501Z,997.82
2022-12-13T01:25:18.454Z,997.85
2022-12-13T01:26:18.440Z,997.81
2022-12-13T01:27:18.432Z,997.84
2022-12-13T01:28:18.422Z,997.86
2022-12-13T01:29:18.421Z,997.89
2022-12-13T01:30:18.403Z,997.88
2022-12-13T01:31:18.433Z,997.88
2022-12-13T01:32:18.387Z,997.92
2022-12-13T01:33:18.391Z,997.92
2022-12-13T01:34:18.400Z,997.91
2022-12-13T01:35:18.346Z,997.94
2022-12-13T01:36:18.322Z,997.91
2022-12-13T01:37:18.316Z,997.87
2022-12-13T01:38:18.296Z,997.87
2022-12-13T01:39:18.323Z,997.92
2022-12-13T01:40:18.276Z,997.85
2022-12-13T01:41:18.409Z,997.84
2022-12-13T01:42:18.255Z,997.84
2022-12-13T01:43:18.267Z,997.83
2022-12-13T01:44:18.267Z,997.80
2022-12-13T01:45:18.216Z,997.75
2022-12-13T01:46:18.277Z,997.78
2022-12-13T01:47:18.186Z,997.77
2022-12-13T01:48:18.177Z,997.78
2022-12-13T01:49:19.170Z,997.74
2022-12-13T01:50:18.154Z,997.77
2022-12-13T01:51:18.143Z,997.75
2022-12-13T01:52:18.132Z,997.75
2022-12-13T01:53:18.115Z,997.80
2022-12-13T01:54:21.266Z,997.78
2022-12-13T01:55:18.805Z,997.79
2022-12-13T01:56:18.083Z,997.75
2022-12-13T01:57:18.069Z,997.81
2022-12-13T01:58:18.058Z,997.87
2022-12-13T01:59:18.055Z,997.82
2022-12-13T02:00:18.035Z,997.86
2022-12-13T02:01:18.105Z,997.85
2022-12-13T02:02:18.008Z,997.82
2022-12-13T02:03:21.712Z,997.80
2022-12-13T02:04:17.997Z,997.76
2022-12-13T02:05:18.447Z,997.77
2022-12-13T02:06:17.960Z,997.71
2022-12-13T02:07:22.606Z,997.67
2022-12-13T02:08:17.974Z,997.69
2022-12-13T02:09:17.940Z,997.70
2022-12-13T02:10:17.908Z,997.74
2022-12-13T02:11:17.915Z,997.67
2022-12-13T02:12:17.893Z,997.71
2022-12-13T02:13:17.873Z,997.71
2022-12-13T02:14:17.883Z,997.70
2022-12-13T02:15:18.336Z,997.70
2022-12-13T02:16:22.731Z,997.68
2022-12-13T02:17:17.827Z,997.67
2022-12-13T02:18:17.816Z,997.67
2022-12-13T02:19:17.816Z,997.66
2022-12-13T02:20:21.528Z,997.63
2022-12-13T02:21:17.773Z,997.69
2022-12-13T02:22:17.763Z,997.64
2022-12-13T02:23:17.753Z,997.69
2022-12-13T02:24:17.788Z,997.67
2022-12-13T02:25:17.789Z,997.65
2022-12-13T02:26:17.716Z,997.66
2022-12-13T02:27:17.775Z,997.65
2022-12-13T02:28:31.770Z,997.68
2022-12-13T02:29:31.077Z,997.66
2022-12-13T02:30:17.697Z,997.61
2022-12-13T02:31:17.768Z,997.63
2022-12-13T02:32:17.646Z,997.60
2022-12-13T02:33:21.740Z,997.63
2022-12-13T02:34:17.618Z,997.61
2022-12-13T02:35:17.842Z,997.59
2022-12-13T02:36:17.596Z,997.61
2022-12-13T02:37:18.628Z,997.65
2022-12-13T02:38:22.925Z,997.61
2022-12-13T02:39:17.568Z,997.61
2022-12-13T02:40:17.562Z,997.58
2022-12-13T02:41:17.533Z,997.50
2022-12-13T02:42:21.617Z,997.62
2022-12-13T02:43:17.527Z,997.54
2022-12-13T02:44:21.958Z,997.55
2022-12-13T02:45:20.806Z,997.56
2022-12-13T02:46:17.517Z,997.54
2022-12-13T02:47:21.963Z,997.52
2022-12-13T02:48:17.453Z,997.50
2022-12-13T02:49:17.436Z,997.54
2022-12-13T02:50:17.453Z,997.57
2022-12-13T02:51:17.413Z,997.54
2022-12-13T02:52:22.086Z,997.58
2022-12-13T02:53:17.393Z,997.61
2022-12-13T02:54:17.379Z,997.54
2022-12-13T02:55:17.706Z,997.53
2022-12-13T02:56:17.356Z,997.57
2022-12-13T02:57:17.338Z,997.51
2022-12-13T02:58:17.325Z,997.55
2022-12-13T02:59:17.340Z,997.57
2022-12-13T03:00:17.320Z,997.51
2022-12-13T03:01:29.231Z,997.44
2022-12-13T03:02:31.344Z,997.42
2022-12-13T03:03:17.405Z,997.46
2022-12-13T03:04:17.253Z,997.52
2022-12-13T03:05:17.570Z,997.55
2022-12-13T03:06:17.231Z,997.54
2022-12-13T03:07:17.219Z,997.48
2022-12-13T03:08:17.300Z,997.54
2022-12-13T03:09:17.195Z,997.52
2022-12-13T03:10:17.199Z,997.59
2022-12-13T03:11:17.176Z,997.56
2022-12-13T03:12:17.164Z,997.54
2022-12-13T03:13:17.151Z,997.55
2022-12-13T03:14:17.133Z,997.55
2022-12-13T03:15:17.474Z,997.53
2022-12-13T03:16:23.188Z,997.51
2022-12-13T03:17:17.101Z,997.51
2022-12-13T03:18:17.088Z,997.53
2022-12-13T03:19:17.076Z,997.50
2022-12-13T03:20:23.218Z,997.48
2022-12-13T03:21:18.058Z,997.50
2022-12-13T03:22:17.040Z,997.41
2022-12-13T03:23:17.028Z,997.48
2022-12-13T03:24:17.014Z,997.50
2022-12-13T03:25:31.919Z,997.47
2022-12-13T03:26:16.993Z,997.48
2022-12-13T03:27:16.983Z,997.50
2022-12-13T03:28:16.968Z,997.49
2022-12-13T03:29:24.087Z,997.47
2022-12-13T03:30:16.979Z,997.45
2022-12-13T03:31:17.037Z,997.48
2022-12-13T03:32:16.915Z,997.44
2022-12-13T03:33:16.911Z,997.49
2022-12-13T03:34:23.007Z,997.47
2022-12-13T03:35:22.289Z,997.44
2022-12-13T03:36:17.883Z,997.46
2022-12-13T03:37:16.854Z,997.48
2022-12-13T03:38:22.294Z,997.44
2022-12-13T03:39:16.835Z,997.41
2022-12-13T03:40:16.814Z,997.42
2022-12-13T03:41:16.826Z,997.41
2022-12-13T03:42:16.794Z,997.39
2022-12-13T03:43:21.819Z,997.36
2022-12-13T03:44:17.771Z,997.29
2022-12-13T03:45:17.037Z,997.30
2022-12-13T03:46:16.846Z,997.27
2022-12-13T03:47:16.754Z,997.28
2022-12-13T03:48:22.817Z,997.27
2022-12-13T03:49:17.814Z,997.21
2022-12-13T03:50:26.798Z,997.19
2022-12-13T03:51:16.704Z,997.18
2022-12-13T03:52:16.671Z,997.16
2022-12-13T03:53:22.213Z,997.17
2022-12-13T03:54:16.660Z,997.19
2022-12-13T03:55:17.018Z,997.19
2022-12-13T03:56:16.635Z,997.19
2022-12-13T03:57:16.611Z,997.18
2022-12-13T03:58:16.600Z,997.17
2022-12-13T03:59:16.594Z,997.14
2022-12-13T04:00:16.576Z,997.18
2022-12-13T04:01:16.583Z,997.15
2022-12-13T04:02:16.562Z,997.13
2022-12-13T04:03:16.619Z,997.12
2022-12-13T04:04:16.531Z,997.09
2022-12-13T04:05:16.762Z,997.11
2022-12-13T04:06:22.738Z,997.05
2022-12-13T04:07:22.393Z,997.12
2022-12-13T04:08:22.263Z,997.05
2022-12-13T04:09:16.470Z,997.04
2022-12-13T04:10:26.079Z,997.01
2022-12-13T04:11:17.465Z,997.09
2022-12-13T04:12:16.430Z,997.03
2022-12-13T04:13:16.420Z,997.06
2022-12-13T04:14:22.513Z,997.03
2022-12-13T04:15:16.753Z,996.98
2022-12-13T04:16:16.482Z,996.99
2022-12-13T04:17:16.372Z,997.04
2022-12-13T04:18:16.360Z,997.00
2022-12-13T04:19:16.363Z,996.99
2022-12-13T04:20:17.335Z,996.97
2022-12-13T04:21:16.344Z,997.01
2022-12-13T04:22:21.682Z,997.07
2022-12-13T04:23:16.301Z,997.15
2022-12-13T04:24:16.286Z,997.09
2022-12-13T04:25:16.544Z,997.11
2022-12-13T04:26:16.276Z,997.07
2022-12-13T04:27:16.248Z,997.17
2022-12-13T04:28:22.103Z,997.06
2022-12-13T04:29:16.231Z,997.10
2022-12-13T04:30:16.217Z,997.10
2022-12-13T04:31:16.294Z,997.06
2022-12-13T04:32:26.855Z,997.09
2022-12-13T04:33:16.182Z,997.07
2022-12-13T04:34:16.162Z,997.05
2022-12-13T04:35:16.395Z,997.05
2022-12-13T04:36:16.153Z,997.06
2022-12-13T04:37:16.131Z,997.06
2022-12-13T04:38:16.113Z,997.08
2022-12-13T04:39:22.208Z,997.11
2022-12-13T04:40:22.053Z,997.01
2022-12-13T04:41:16.097Z,997.08
2022-12-13T04:42:16.072Z,997.12
2022-12-13T04:43:16.055Z,997.13
2022-12-13T04:44:27.493Z,997.11
2022-12-13T04:45:17.258Z,997.18
2022-12-13T04:46:16.110Z,997.22
2022-12-13T04:47:16.005Z,997.25
2022-12-13T04:48:30.672Z,997.27
2022-12-13T04:49:16.998Z,997.19
2022-12-13T04:50:15.972Z,997.24
2022-12-13T04:51:15.986Z,997.22
2022-12-13T04:52:22.032Z,997.21
2022-12-13T04:53:15.936Z,997.25
2022-12-13T04:54:24.402Z,997.27
2022-12-13T04:55:16.111Z,997.17
2022-12-13T04:56:15.897Z,997.16
2022-12-13T04:57:15.903Z,997.22
2022-12-13T04:58:21.245Z,997.18
2022-12-13T04:59:15.863Z,997.14
2022-12-13T05:00:15.846Z,997.17
2022-12-13T05:01:15.895Z,997.15
2022-12-13T05:02:23.546Z,997.11
2022-12-13T05:03:16.814Z,997.14
2022-12-13T05:04:15.802Z,997.21
2022-12-13T05:05:16.071Z,997.17
2022-12-13T05:06:26.198Z,997.19
2022-12-13T05:07:15.801Z,997.19
2022-12-13T05:08:15.832Z,997.24
2022-12-13T05:09:15.741Z,997.19
2022-12-13T05:10:32.044Z,997.27
2022-12-13T05:11:15.716Z,997.17
2022-12-13T05:12:22.297Z,997.24
2022-12-13T05:13:15.693Z,997.22
2022-12-13T05:14:23.461Z,997.16
2022-12-13T05:15:17.023Z,997.19
2022-12-13T05:16:15.747Z,997.19
2022-12-13T05:17:15.663Z,997.18
2022-12-13T05:18:15.626Z,997.13
2022-12-13T05:19:15.618Z,997.16
2022-12-13T05:20:15.603Z,997.12
2022-12-13T05:21:15.596Z,997.12
2022-12-13T05:22:19.929Z,997.13
2022-12-13T05:23:22.328Z,997.11
2022-12-13T05:24:16.556Z,997.15
2022-12-13T05:25:15.809Z,997.20
2022-12-13T05:26:15.530Z,997.14
2022-12-13T05:27:25.552Z,997.12
2022-12-13T05:28:28.288Z,997.15
2022-12-13T05:29:15.498Z,997.18
2022-12-13T05:30:15.493Z,997.16
2022-12-13T05:31:23.127Z,997.14
2022-12-13T05:32:16.587Z,997.11
2022-12-13T05:33:15.446Z,997.15
2022-12-13T05:34:15.437Z,997.16
2022-12-13T05:35:22.597Z,997.20
2022-12-13T05:36:15.415Z,997.16
2022-12-13T05:37:15.417Z,997.12
2022-12-13T05:38:15.383Z,997.22
2022-12-13T05:39:29.264Z,997.23
2022-12-13T05:40:16.366Z,997.25
2022-12-13T05:41:15.359Z,997.25
2022-12-13T05:42:15.353Z,997.20
2022-12-13T05:43:21.211Z,997.21
2022-12-13T05:44:15.315Z,997.18
2022-12-13T05:45:15.514Z,997.14
2022-12-13T05:46:15.370Z,997.14
2022-12-13T05:47:15.302Z,997.14
2022-12-13T05:48:15.264Z,997.15
2022-12-13T05:49:16.256Z,997.11
2022-12-13T05:50:15.244Z,997.16
2022-12-13T05:51:15.233Z,997.13
2022-12-13T05:52:15.234Z,997.14
2022-12-13T05:53:15.204Z,997.10
2022-12-13T05:54:15.202Z,997.12
2022-12-13T05:55:15.565Z,997.11
2022-12-13T05:56:22.449Z,997.13
2022-12-13T05:57:15.161Z,997.12
2022-12-13T05:58:15.159Z,997.07
2022-12-13T05:59:15.134Z,997.11
2022-12-13T06:00:30.023Z,997.07
2022-12-13T06:01:15.111Z,997.12
2022-12-13T06:02:19.817Z,997.18
2022-12-13T06:03:15.218Z,997.09
2022-12-13T06:04:22.333Z,997.02
2022-12-13T06:05:15.337Z,997.06
2022-12-13T06:06:15.044Z,997.12
2022-12-13T06:07:15.035Z,997.06
2022-12-13T06:08:24.718Z,997.12
2022-12-13T06:09:15.011Z,997.10
2022-12-13T06:10:14.997Z,997.08
2022-12-13T06:11:31.105Z,997.12
2022-12-13T06:12:31.707Z,997.11
2022-12-13T06:13:21.579Z,997.06
2022-12-13T06:14:22.532Z,997.14
2022-12-13T06:15:21.486Z,997.08
2022-12-13T06:16:23.799Z,997.10
2022-12-13T06:17:14.920Z,997.11
2022-12-13T06:18:15.919Z,997.10
2022-12-13T06:19:14.894Z,997.14
2022-12-13T06:20:23.204Z,997.13
2022-12-13T06:21:14.869Z,997.13
2022-12-13T06:22:14.858Z,997.13
2022-12-13T06:23:14.857Z,997.16
2022-12-13T06:24:14.862Z,997.17
2022-12-13T06:25:31.564Z,997.19
2022-12-13T06:26:14.811Z,997.22
2022-12-13T06:27:14.820Z,997.29
2022-12-13T06:28:14.799Z,997.19
2022-12-13T06:29:22.545Z,997.20
2022-12-13T06:30:14.762Z,997.27
2022-12-13T06:31:14.834Z,997.24
2022-12-13T06:32:14.728Z,997.26
2022-12-13T06:33:14.733Z,997.30
2022-12-13T06:34:15.513Z,997.29
2022-12-13T06:35:28.967Z,997.33
2022-12-13T06:36:15.683Z,997.30
2022-12-13T06:37:14.672Z,997.30
2022-12-13T06:38:14.673Z,997.32
2022-12-13T06:39:14.647Z,997.32
2022-12-13T06:40:18.742Z,997.32
2022-12-13T06:41:15.630Z,997.26
2022-12-13T06:42:14.614Z,997.30
2022-12-13T06:43:14.644Z,997.29
2022-12-13T06:44:14.589Z,997.28
2022-12-13T06:45:14.579Z,997.29
2022-12-13T06:46:14.689Z,997.22
2022-12-13T06:47:31.028Z,997.34
2022-12-13T06:48:19.989Z,997.25
2022-12-13T06:49:14.525Z,997.29
2022-12-13T06:50:14.515Z,997.27
2022-12-13T06:51:22.874Z,997.32
2022-12-13T06:52:14.506Z,997.34
2022-12-13T06:53:14.494Z,997.29
2022-12-13T06:54:14.466Z,997.29
2022-12-13T06:55:14.453Z,997.35
2022-12-13T06:56:14.449Z,997.31
2022-12-13T06:57:14.425Z,997.31
2022-12-13T06:58:14.438Z,997.30
2022-12-13T06:59:14.423Z,997.34
2022-12-13T07:00:14.398Z,997.30
2022-12-13T07:01:15.244Z,997.31
2022-12-13T07:02:25.296Z,997.28
2022-12-13T07:03:15.544Z,997.35
2022-12-13T07:04:30.463Z,997.37
2022-12-13T07:05:14.335Z,997.40
2022-12-13T07:06:14.319Z,997.40
2022-12-13T07:07:14.307Z,997.39
2022-12-13T07:08:14.392Z,997.41
2022-12-13T07:09:14.300Z,997.41
2022-12-13T07:10:22.664Z,997.45
2022-12-13T07:11:14.262Z,997.53
2022-12-13T07:12:14.248Z,997.44
2022-12-13T07:13:14.234Z,997.47
2022-12-13T07:14:14.248Z,997.44
2022-12-13T07:15:14.234Z,997.43
2022-12-13T07:16:14.325Z,997.44
2022-12-13T07:17:32.774Z,997.49
2022-12-13T07:18:14.180Z,997.50
2022-12-13T07:19:23.890Z,997.47
2022-12-13T07:20:14.153Z,997.50
2022-12-13T07:21:21.731Z,997.53
2022-12-13T07:22:15.132Z,997.52
2022-12-13T07:23:14.150Z,997.46
2022-12-13T07:24:14.118Z,997.44
2022-12-13T07:25:26.785Z,997.45
2022-12-13T07:26:14.082Z,997.47
2022-12-13T07:27:14.065Z,997.47
2022-12-13T07:28:14.056Z,997.47
2022-12-13T07:29:22.131Z,997.45
2022-12-13T07:30:15.031Z,997.42
2022-12-13T07:31:14.080Z,997.42
2022-12-13T07:32:14.038Z,997.50
2022-12-13T07:33:13.991Z,997.43
2022-12-13T07:34:15.752Z,997.45
2022-12-13T07:35:13.965Z,997.42
2022-12-13T07:36:13.958Z,997.52
2022-12-13T07:37:29.810Z,997.47
2022-12-13T07:38:13.933Z,997.41
2022-12-13T07:39:13.930Z,997.41
2022-12-13T07:40:13.906Z,997.45
2022-12-13T07:41:13.962Z,997.35
2022-12-13T07:42:14.886Z,997.47
2022-12-13T07:43:13.872Z,997.41
2022-12-13T07:44:13.885Z,997.43
2022-12-13T07:45:13.856Z,997.49
2022-12-13T07:46:13.883Z,997.43
2022-12-13T07:47:13.853Z,997.47
2022-12-13T07:48:13.813Z,997.51
2022-12-13T07:49:13.821Z,997.45
2022-12-13T07:50:24.685Z,997.43
2022-12-13T07:51:13.778Z,997.38
2022-12-13T07:52:13.763Z,997.41
2022-12-13T07:53:13.752Z,997.42
2022-12-13T07:54:13.752Z,997.35
2022-12-13T07:55:13.728Z,997.33
2022-12-13T07:56:13.724Z,997.37
2022-12-13T07:57:13.700Z,997.41
2022-12-13T07:58:13.695Z,997.37
2022-12-13T07:59:13.688Z,997.38
2022-12-13T08:00:13.667Z,997.40
2022-12-13T08:01:13.874Z,997.35
2022-12-13T08:02:13.743Z,997.44
2022-12-13T08:03:18.183Z,997.43
2022-12-13T08:04:14.644Z,997.43
2022-12-13T08:05:26.920Z,997.42
2022-12-13T08:06:13.595Z,997.39
2022-12-13T08:07:13.583Z,997.41
2022-12-13T08:08:13.621Z,997.39
2022-12-13T08:09:13.570Z,997.42
2022-12-13T08:10:13.550Z,997.37
2022-12-13T08:11:13.538Z,997.37
2022-12-13T08:12:13.520Z,997.40
2022-12-13T08:13:13.506Z,997.31
2022-12-13T08:14:13.509Z,997.30
2022-12-13T08:15:14.331Z,997.30
2022-12-13T08:16:26.050Z,997.27
2022-12-13T08:17:13.464Z,997.25
2022-12-13T08:18:13.450Z,997.26
2022-12-13T08:19:13.478Z,997.29
2022-12-13T08:20:13.426Z,997.42
2022-12-13T08:21:51.869Z,997.49
2022-12-13T08:22:13.996Z,997.41
2022-12-13T08:23:13.384Z,997.40
2022-12-13T08:24:15.776Z,997.38
2022-12-13T08:25:13.361Z,997.31
2022-12-13T08:26:13.347Z,997.31
2022-12-13T08:27:13.344Z,997.28
2022-12-13T08:28:13.325Z,997.32
2022-12-13T08:29:13.307Z,997.24
2022-12-13T08:30:17.524Z,997.31
2022-12-13T08:31:13.314Z,997.30
2022-12-13T08:32:13.283Z,997.27
2022-12-13T08:33:13.257Z,997.24
2022-12-13T08:34:13.248Z,997.23
2022-12-13T08:35:13.270Z,997.21
2022-12-13T08:36:13.224Z,997.28
2022-12-13T08:37:13.207Z,997.13
2022-12-13T08:38:13.195Z,997.01
2022-12-13T08:39:13.196Z,997.08
2022-12-13T08:40:13.183Z,997.25
2022-12-13T08:41:13.156Z,997.23
2022-12-13T08:42:16.414Z,997.18
2022-12-13T08:43:13.132Z,997.23
2022-12-13T08:44:13.118Z,997.22
2022-12-13T08:45:13.121Z,997.24
2022-12-13T08:46:13.124Z,997.28
2022-12-13T08:47:13.086Z,997.21
2022-12-13T08:48:13.068Z,997.17
2022-12-13T08:49:13.078Z,997.18
2022-12-13T08:50:13.061Z,997.19
2022-12-13T08:51:13.024Z,997.08
2022-12-13T08:52:13.014Z,997.16
2022-12-13T08:53:28.106Z,997.07
2022-12-13T08:54:12.990Z,997.14
2022-12-13T08:55:12.997Z,997.10
2022-12-13T08:56:12.963Z,997.13
2022-12-13T08:57:12.955Z,997.09
2022-12-13T08:58:12.942Z,997.08
2022-12-13T08:59:12.932Z,997.03
2022-12-13T09:00:12.927Z,997.10
2022-12-13T09:01:12.947Z,997.10
2022-12-13T09:02:12.972Z,997.12
2022-12-13T09:03:12.869Z,997.11
2022-12-13T09:04:12.899Z,997.11
2022-12-13T09:05:12.874Z,997.04
2022-12-13T09:06:12.831Z,997.05
2022-12-13T09:07:12.820Z,997.05
2022-12-13T09:08:24.729Z,997.14
2022-12-13T09:09:12.795Z,997.22
2022-12-13T09:10:27.293Z,997.24
2022-12-13T09:11:22.444Z,997.22
2022-12-13T09:12:30.805Z,997.21
2022-12-13T09:13:12.738Z,997.24
2022-12-13T09:14:14.158Z,997.25
2022-12-13T09:15:22.308Z,997.25
2022-12-13T09:16:14.323Z,997.26
2022-12-13T09:17:14.805Z,997.29
2022-12-13T09:18:15.365Z,997.25
2022-12-13T09:19:26.394Z,997.30
2022-12-13T09:20:28.808Z,997.27
2022-12-13T09:21:13.685Z,997.30
2022-12-13T09:22:14.529Z,997.34
2022-12-13T09:23:13.953Z,997.37
2022-12-13T09:24:24.380Z,997.30
2022-12-13T09:25:14.954Z,997.40
2022-12-13T09:26:15.012Z,997.41
2022-12-13T09:27:27.941Z,997.42
2022-12-13T09:28:12.548Z,997.33
2022-12-13T09:29:12.528Z,997.37
2022-12-13T09:30:12.533Z,997.32
2022-12-13T09:31:12.584Z,997.38
2022-12-13T09:32:12.576Z,997.25
2022-12-13T09:33:27.788Z,997.30
2022-12-13T09:34:12.586Z,997.36
2022-12-13T09:35:12.465Z,997.38
2022-12-13T09:36:12.458Z,997.36
2022-12-13T09:37:12.424Z,997.38
2022-12-13T09:38:12.412Z,997.39
2022-12-13T09:39:12.395Z,997.40
2022-12-13T09:40:16.135Z,997.39
2022-12-13T09:41:12.372Z,997.34
2022-12-13T09:42:12.362Z,997.31
2022-12-13T09:43:23.011Z,997.34
2022-12-13T09:44:32.968Z,997.31
2022-12-13T09:45:22.644Z,997.21
2022-12-13T09:46:22.106Z,997.19
2022-12-13T09:47:13.320Z,997.30
2022-12-13T09:48:13.511Z,997.33
2022-12-13T09:49:13.478Z,997.41
2022-12-13T09:50:14.826Z,997.46
2022-12-13T09:51:17.318Z,997.45
2022-12-13T09:52:21.934Z,997.45
2022-12-13T09:53:21.871Z,997.47
2022-12-13T09:54:12.204Z,997.54
2022-12-13T09:55:12.185Z,997.59
2022-12-13T09:56:12.198Z,997.53
2022-12-13T09:57:12.162Z,997.55
2022-12-13T09:58:12.157Z,997.51
2022-12-13T09:59:12.139Z,997.56
2022-12-13T10:00:12.124Z,997.47
2022-12-13T10:01:12.203Z,997.54
2022-12-13T10:02:12.148Z,997.56
2022-12-13T10:03:12.084Z,997.52
2022-12-13T10:04:12.070Z,997.53
2022-12-13T10:05:21.735Z,997.53
2022-12-13T10:06:13.062Z,997.53
2022-12-13T10:07:12.034Z,997.55
2022-12-13T10:08:12.047Z,997.53
2022-12-13T10:09:12.009Z,997.50
2022-12-13T10:10:11.995Z,997.59
2022-12-13T10:11:11.996Z,997.49
2022-12-13T10:12:11.969Z,997.49
2022-12-13T10:13:11.954Z,997.48
2022-12-13T10:14:11.943Z,997.49
2022-12-13T10:15:11.929Z,997.48
2022-12-13T10:16:11.995Z,997.43
2022-12-13T10:17:11.902Z,997.27
2022-12-13T10:18:11.894Z,997.18
2022-12-13T10:19:11.882Z,997.26
2022-12-13T10:20:11.868Z,997.40
2022-12-13T10:21:11.866Z,997.46
2022-12-13T10:22:11.836Z,997.51
2022-12-13T10:24:33.035Z,997.44
2022-12-13T10:25:12.799Z,997.47
2022-12-13T10:26:23.734Z,997.50
2022-12-13T10:27:11.779Z,997.50
2022-12-13T10:28:11.762Z,997.47
2022-12-13T10:29:11.746Z,997.52
2022-12-13T10:30:11.735Z,997.59
2022-12-13T10:31:11.795Z,997.56
2022-12-13T10:32:11.707Z,997.59
2022-12-13T10:33:11.693Z,997.49
2022-12-13T10:34:11.685Z,997.56
2022-12-13T10:35:11.668Z,997.51
2022-12-13T10:36:11.674Z,997.54
2022-12-13T10:37:11.644Z,997.50
2022-12-13T10:38:11.630Z,997.46
2022-12-13T10:39:11.616Z,997.48
2022-12-13T10:40:11.622Z,997.45
2022-12-13T10:41:11.605Z,997.39
2022-12-13T10:42:11.591Z,997.31
2022-12-13T10:43:11.561Z,997.30
2022-12-13T10:44:11.553Z,997.21
2022-12-13T10:45:11.536Z,997.29
2022-12-13T10:46:11.570Z,997.26
2022-12-13T10:47:11.510Z,997.22
2022-12-13T10:48:11.501Z,997.25
2022-12-13T10:49:11.486Z,997.23
2022-12-13T10:50:11.473Z,997.18
2022-12-13T10:51:11.567Z,997.19
2022-12-13T10:52:11.462Z,997.24
2022-12-13T10:53:11.434Z,997.18
2022-12-13T10:54:11.424Z,997.17
2022-12-13T10:55:22.696Z,997.10
2022-12-13T10:56:11.419Z,997.15
2022-12-13T10:57:11.415Z,997.13
2022-12-13T10:58:11.370Z,997.15
2022-12-13T10:59:16.960Z,997.17
2022-12-13T11:00:15.533Z,997.20
2022-12-13T11:01:11.359Z,997.15
2022-12-13T11:02:11.377Z,997.11
2022-12-13T11:03:11.305Z,997.16
2022-12-13T11:04:11.295Z,997.22
2022-12-13T11:05:11.539Z,997.14
2022-12-13T11:06:11.267Z,997.12
2022-12-13T11:07:11.280Z,997.11
2022-12-13T11:08:11.249Z,997.10
2022-12-13T11:09:13.506Z,997.11
2022-12-13T11:10:14.579Z,997.03
2022-12-13T11:11:11.204Z,997.07
2022-12-13T11:12:11.240Z,996.97
2022-12-13T11:13:11.181Z,996.93
2022-12-13T11:14:11.179Z,996.93
2022-12-13T11:15:11.155Z,996.94
2022-12-13T11:16:11.200Z,996.88
2022-12-13T11:17:11.144Z,996.92
2022-12-13T11:18:11.113Z,996.94
2022-12-13T11:19:11.136Z,996.86
2022-12-13T11:20:11.087Z,996.89
2022-12-13T11:21:11.077Z,996.81
2022-12-13T11:22:11.082Z,996.83
2022-12-13T11:23:11.054Z,996.81
2022-12-13T11:24:11.038Z,996.75
2022-12-13T11:25:11.024Z,996.62
2022-12-13T11:26:11.009Z,996.67
2022-12-13T11:27:11.012Z,996.71
2022-12-13T11:28:26.921Z,996.71
2022-12-13T11:29:11.975Z,996.68
2022-12-13T11:30:10.958Z,996.69
2022-12-13T11:31:10.951Z,996.63
2022-12-13T11:32:11.028Z,996.66
2022-12-13T11:33:10.924Z,996.65
2022-12-13T11:34:10.910Z,996.57
2022-12-13T11:35:10.903Z,996.59
2022-12-13T11:36:10.881Z,996.46
2022-12-13T11:37:10.886Z,996.66
2022-12-13T11:38:10.858Z,996.60
2022-12-13T11:39:10.849Z,996.56
2022-12-13T11:40:10.831Z,996.54
2022-12-13T11:41:10.821Z,996.49
2022-12-13T11:42:10.833Z,996.53
2022-12-13T11:43:10.791Z,996.51
2022-12-13T11:44:10.803Z,996.46
2022-12-13T11:45:10.769Z,996.45
2022-12-13T11:46:10.863Z,996.46
2022-12-13T11:47:10.763Z,996.41
2022-12-13T11:48:10.752Z,996.41
2022-12-13T11:49:10.722Z,996.32
2022-12-13T11:50:10.706Z,996.37
2022-12-13T11:51:10.697Z,996.33
2022-12-13T11:52:10.690Z,996.30
2022-12-13T11:53:10.671Z,996.30
2022-12-13T11:54:10.650Z,996.26
2022-12-13T11:55:10.652Z,996.31
2022-12-13T11:56:10.623Z,996.31
2022-12-13T11:57:10.633Z,996.34
2022-12-13T11:58:10.598Z,996.34
2022-12-13T11:59:20.772Z,996.29
2022-12-13T12:00:13.202Z,996.30
2022-12-13T12:01:11.606Z,996.37
2022-12-13T12:02:16.368Z,996.35
2022-12-13T12:03:10.655Z,996.31
2022-12-13T12:04:10.520Z,996.38
2022-12-13T12:05:10.509Z,996.34
2022-12-13T12:06:10.501Z,996.38
2022-12-13T12:07:31.357Z,996.33
2022-12-13T12:09:10.458Z,996.36
2022-12-13T12:10:10.447Z,996.30
2022-12-13T12:11:10.434Z,996.35
2022-12-13T12:12:10.430Z,996.32
2022-12-13T12:13:10.404Z,996.23
2022-12-13T12:14:10.396Z,996.18
2022-12-13T12:15:15.588Z,996.08
2022-12-13T12:16:10.426Z,996.10
2022-12-13T12:17:10.376Z,996.08
2022-12-13T12:18:10.335Z,996.06
2022-12-13T12:19:10.343Z,996.04
2022-12-13T12:20:10.387Z,996.03
2022-12-13T12:21:10.310Z,996.11
2022-12-13T12:22:14.873Z,996.15
2022-12-13T12:23:11.304Z,996.12
2022-12-13T12:24:10.258Z,996.06
2022-12-13T12:25:10.249Z,995.90
2022-12-13T12:26:10.240Z,995.87
2022-12-13T12:27:10.233Z,995.86
2022-12-13T12:28:10.221Z,995.86
2022-12-13T12:29:12.295Z,995.87
2022-12-13T12:30:10.308Z,995.85